KYNG/YNG METAR and TAF weather

Enter ICAO airport designator
Station Type Date Time Source
KYNG METAR 2020/09/25 18:51 UTC NOAA

KYNG 251851Z 14007KT 10SM FEW048 FEW250 25/13 A3005 RMK AO2 SLP172 T02500128 $


Station Type Date Time Source
KYNG Decoded METAR 2020/09/25 18:51 UTC NOAA

YOUNGSTOWN-WARREN REG AIRPRT, OH, United States (KYNG) 41-15N 080-40W 360M
Sep 25, 2020 - 02:51 PM EDT / 2020.09.25 1851 UTC
Wind: from the SE (140 degrees) at 8 MPH (7 KT):0
Visibility: 10 mile(s):0
Sky conditions: mostly clear
Temperature: 77.0 F (25.0 C)
Dew Point: 55.0 F (12.8 C)
Relative Humidity: 46%
Pressure (altimeter): 30.05 in. Hg (1017 hPa)
ob: KYNG 251851Z 14007KT 10SM FEW048 FEW250 25/13 A3005 RMK AO2 SLP172 T02500128
cycle: 19

Station Type Date Time Source
KYNG TAF 2020/09/25 18:28 UTC NOAA

TAF KYNG 251726Z 2518/2618 13004KT P6SM SKC

Example: see airport list